createdAt,value
2022-12-20T00:01:28.832Z,0.80
2022-12-20T00:05:45.092Z,0.87
2022-12-20T00:10:01.589Z,1.00
2022-12-20T00:14:18.230Z,0.81
2022-12-20T00:18:35.030Z,-0.02
2022-12-20T00:22:51.146Z,0.75
2022-12-20T00:27:07.423Z,0.87
2022-12-20T00:31:24.956Z,0.81
2022-12-20T00:35:43.533Z,0.18
2022-12-20T00:39:59.897Z,0.74
2022-12-20T00:44:16.117Z,0.65
2022-12-20T00:48:33.249Z,0.31
2022-12-20T00:52:49.597Z,0.85
2022-12-20T00:57:05.867Z,0.30
2022-12-20T01:01:28.499Z,0.73
2022-12-20T01:05:55.924Z,0.56
2022-12-20T01:10:12.373Z,0.50
2022-12-20T01:14:28.548Z,0.35
2022-12-20T01:18:44.866Z,-0.28
2022-12-20T01:23:01.147Z,0.28
2022-12-20T01:27:17.275Z,0.46
2022-12-20T01:31:34.068Z,0.27
2022-12-20T01:36:21.104Z,0.91
2022-12-20T01:40:40.128Z,0.29
2022-12-20T01:44:58.845Z,0.51
2022-12-20T01:49:19.815Z,0.60
2022-12-20T01:53:36.003Z,0.74
2022-12-20T01:58:12.455Z,0.59
2022-12-20T02:02:28.891Z,0.52
2022-12-20T02:06:45.199Z,1.04
2022-12-20T02:11:13.517Z,1.01
2022-12-20T02:15:56.745Z,1.18
2022-12-20T02:20:49.607Z,0.64
2022-12-20T02:25:37.554Z,0.45
2022-12-20T02:30:16.145Z,0.18
2022-12-20T02:34:34.142Z,0.20
2022-12-20T02:38:51.436Z,0.70
2022-12-20T02:43:29.292Z,-0.05
2022-12-20T02:47:59.281Z,0.10
2022-12-20T02:52:15.813Z,0.17
2022-12-20T02:56:48.907Z,0.66
2022-12-20T03:01:27.923Z,0.91
2022-12-20T03:05:47.066Z,0.62
2022-12-20T03:10:03.241Z,1.03
2022-12-20T03:14:19.985Z,0.98
2022-12-20T03:18:36.181Z,0.64
2022-12-20T03:22:52.480Z,1.13
2022-12-20T03:27:09.332Z,1.17
2022-12-20T03:31:25.790Z,1.13
2022-12-20T03:35:42.234Z,1.25
2022-12-20T03:39:58.533Z,0.78
2022-12-20T03:44:14.741Z,1.05
2022-12-20T03:48:30.967Z,0.93
2022-12-20T03:52:47.171Z,1.10
2022-12-20T03:57:03.320Z,1.00
2022-12-20T04:01:28.567Z,1.21
2022-12-20T04:05:44.878Z,1.17
2022-12-20T04:10:01.059Z,0.99
2022-12-20T04:14:17.317Z,0.97
2022-12-20T04:18:33.497Z,1.19
2022-12-20T04:22:51.072Z,1.38
2022-12-20T04:27:07.348Z,1.30
2022-12-20T04:31:24.580Z,0.80
2022-12-20T04:35:41.014Z,0.99
2022-12-20T04:39:58.557Z,1.16
2022-12-20T04:44:14.768Z,1.39
2022-12-20T04:48:56.253Z,1.47
2022-12-20T04:53:25.758Z,0.98
2022-12-20T04:57:41.945Z,1.65
2022-12-20T05:01:58.242Z,1.85
2022-12-20T05:06:15.227Z,2.03
2022-12-20T05:10:31.573Z,2.02
2022-12-20T05:14:47.720Z,2.23
2022-12-20T05:19:04.846Z,1.78
2022-12-20T05:23:39.480Z,1.79
2022-12-20T05:27:58.749Z,1.73
2022-12-20T05:32:15.099Z,1.77
2022-12-20T05:36:31.416Z,1.85
2022-12-20T05:40:49.503Z,1.79
2022-12-20T05:45:06.434Z,1.95
2022-12-20T05:49:22.651Z,1.87
2022-12-20T05:53:38.868Z,1.79
2022-12-20T05:57:54.983Z,1.36
2022-12-20T06:02:12.511Z,1.72
2022-12-20T06:06:28.848Z,0.73
2022-12-20T06:10:45.010Z,1.05
2022-12-20T08:39:50.090Z,1.93
2022-12-20T08:44:07.216Z,1.91
2022-12-20T08:48:23.729Z,1.99
2022-12-20T08:52:40.433Z,2.28
2022-12-20T08:56:56.651Z,2.11
2022-12-20T09:01:17.965Z,2.24
2022-12-20T09:05:34.150Z,2.55
2022-12-20T09:09:50.455Z,2.57
2022-12-20T09:14:08.361Z,2.14
2022-12-20T09:18:24.454Z,2.67
2022-12-20T09:22:40.593Z,2.82
2022-12-20T09:26:56.813Z,2.94
2022-12-20T09:31:15.789Z,2.79
2022-12-20T09:35:33.708Z,3.20
2022-12-20T09:39:53.237Z,2.98
2022-12-20T09:44:31.842Z,2.87
2022-12-20T09:48:48.399Z,2.88
2022-12-20T09:53:20.295Z,2.80
2022-12-20T09:58:08.981Z,3.04
2022-12-20T10:02:55.531Z,3.46
2022-12-20T10:07:14.580Z,3.21
2022-12-20T10:11:51.480Z,3.72
2022-12-20T10:16:34.985Z,4.07
2022-12-20T10:21:16.283Z,3.92
2022-12-20T10:25:34.471Z,3.15
2022-12-20T10:29:51.129Z,3.63
2022-12-20T10:34:08.116Z,3.78
2022-12-20T10:38:24.926Z,3.99
2022-12-20T10:42:43.452Z,3.62
2022-12-20T10:47:01.585Z,3.53
2022-12-20T10:51:24.785Z,3.94
2022-12-20T10:55:44.561Z,4.12
2022-12-20T11:00:04.244Z,4.22
2022-12-20T11:04:32.542Z,4.75
2022-12-20T11:08:55.367Z,4.69
2022-12-20T11:13:26.110Z,4.14
2022-12-20T11:17:49.041Z,4.59
2022-12-20T11:22:17.453Z,4.62
2022-12-20T11:27:04.015Z,4.97
2022-12-20T11:31:41.601Z,4.93
2022-12-20T11:36:18.164Z,5.40
2022-12-20T11:40:39.156Z,5.45
2022-12-20T11:45:08.817Z,5.91
2022-12-20T11:49:50.949Z,6.03
2022-12-20T11:54:13.798Z,6.41
2022-12-20T11:58:40.388Z,6.50
2022-12-20T12:03:28.980Z,6.21
2022-12-20T12:07:47.985Z,6.11
2022-12-20T12:12:22.275Z,5.67
2022-12-20T12:16:40.965Z,5.21
2022-12-20T12:21:13.914Z,5.51
2022-12-20T12:25:30.188Z,5.20
2022-12-20T12:29:46.433Z,5.33
2022-12-20T12:34:39.436Z,5.12
2022-12-20T12:39:39.604Z,5.29
2022-12-20T12:43:58.934Z,4.97
2022-12-20T12:48:20.748Z,5.76
2022-12-20T12:52:51.617Z,5.95
2022-12-20T12:57:18.939Z,5.81
2022-12-20T13:02:19.902Z,5.40
2022-12-20T13:06:38.523Z,6.30
2022-12-20T13:10:57.267Z,7.31
2022-12-20T13:15:22.463Z,7.68
2022-12-20T13:19:39.418Z,7.56
2022-12-20T13:24:29.889Z,7.34
2022-12-20T13:43:51.203Z,10.37
2022-12-20T13:48:11.673Z,10.63
2022-12-20T13:52:44.520Z,11.52
2022-12-20T13:57:00.728Z,9.90
2022-12-20T14:01:17.103Z,8.45
2022-12-20T14:05:40.218Z,8.79
2022-12-20T14:10:01.956Z,8.83
2022-12-20T14:14:18.177Z,7.66
2022-12-20T14:18:34.386Z,6.89
2022-12-20T14:23:22.081Z,6.42
2022-12-20T14:27:38.859Z,5.65
2022-12-20T14:31:55.185Z,5.07
2022-12-20T14:36:17.550Z,4.14
2022-12-20T14:40:40.969Z,4.49
2022-12-20T14:45:09.203Z,4.21
2022-12-20T14:49:36.623Z,4.12
2022-12-20T14:54:00.115Z,3.90
2022-12-20T14:58:33.016Z,3.84
2022-12-20T15:03:25.103Z,3.34
2022-12-20T15:07:42.124Z,3.07
2022-12-20T15:11:58.586Z,3.11
2022-12-20T15:16:21.902Z,2.95
2022-12-20T15:20:38.515Z,3.10
2022-12-20T15:24:54.749Z,3.05
2022-12-20T15:29:33.229Z,3.08
2022-12-20T15:33:50.700Z,2.43
2022-12-20T15:38:09.921Z,3.09
2022-12-20T15:42:26.196Z,2.92
2022-12-20T15:46:43.024Z,2.49
2022-12-20T15:51:00.234Z,3.11
2022-12-20T15:55:16.456Z,3.15
2022-12-20T16:04:13.935Z,3.08
2022-12-20T16:08:31.096Z,2.62
2022-12-20T16:12:47.325Z,2.87
2022-12-20T16:17:05.618Z,2.56
2022-12-20T16:21:24.773Z,2.86
2022-12-20T16:25:40.997Z,2.31
2022-12-20T16:29:57.350Z,2.11
2022-12-20T16:34:16.019Z,1.92
2022-12-20T16:38:32.233Z,2.25
2022-12-20T16:42:51.322Z,2.72
2022-12-20T16:47:07.598Z,2.55
2022-12-20T16:51:27.251Z,2.34
2022-12-20T16:55:43.528Z,1.95
2022-12-20T16:59:59.926Z,2.17
2022-12-20T17:04:18.113Z,1.98
2022-12-20T17:08:52.916Z,2.00
2022-12-20T17:13:11.918Z,1.95
2022-12-20T17:17:28.246Z,2.34
2022-12-20T17:26:27.415Z,2.12
2022-12-20T17:30:43.764Z,2.22
2022-12-20T17:35:00.049Z,2.58
2022-12-20T17:39:16.940Z,2.32
2022-12-20T17:43:33.162Z,2.15
2022-12-20T17:47:49.733Z,2.27
2022-12-20T17:52:06.104Z,2.23
2022-12-20T17:56:33.197Z,2.61
2022-12-20T18:00:50.557Z,2.27
2022-12-20T18:05:07.725Z,2.55
2022-12-20T18:09:23.949Z,2.31
2022-12-20T18:13:44.762Z,2.21
2022-12-20T18:18:01.018Z,2.33
2022-12-20T18:22:17.386Z,2.09
2022-12-20T18:26:35.121Z,2.06
2022-12-20T18:30:51.425Z,1.91
2022-12-20T18:35:08.365Z,2.42
2022-12-20T18:39:24.683Z,2.13
2022-12-20T18:43:41.089Z,1.75
2022-12-20T18:47:57.358Z,2.27
2022-12-20T18:52:16.524Z,1.99
2022-12-20T18:56:36.711Z,2.46
2022-12-20T19:00:56.804Z,2.14
2022-12-20T19:05:13.120Z,2.39
2022-12-20T19:09:29.372Z,2.48
2022-12-20T19:13:45.845Z,2.32
2022-12-20T19:18:02.272Z,2.63
2022-12-20T19:22:18.613Z,2.39
2022-12-20T19:26:36.687Z,2.28
2022-12-20T19:30:53.026Z,2.33
2022-12-20T19:35:37.429Z,2.35
2022-12-20T19:39:45.713Z,2.41
2022-12-20T19:44:02.273Z,2.54
2022-12-20T19:48:18.773Z,2.51
2022-12-20T19:52:35.216Z,2.62
2022-12-20T19:56:51.412Z,2.36
2022-12-20T20:01:09.171Z,2.30
2022-12-20T20:05:25.383Z,2.39
2022-12-20T20:09:41.613Z,2.55
2022-12-20T20:13:57.975Z,2.55
2022-12-20T20:18:14.204Z,2.88
2022-12-20T20:22:30.452Z,2.72
2022-12-20T20:26:46.698Z,2.37
2022-12-20T20:31:03.899Z,2.67
2022-12-20T20:35:20.279Z,2.42
2022-12-20T20:39:36.541Z,2.04
2022-12-20T20:43:53.034Z,2.43
2022-12-20T20:48:09.767Z,2.62
2022-12-20T20:52:26.017Z,2.72
2022-12-20T20:56:42.362Z,2.74
2022-12-20T21:01:00.516Z,2.31
2022-12-20T21:06:06.221Z,2.77
2022-12-20T21:09:53.820Z,2.50
2022-12-20T21:14:11.303Z,2.48
2022-12-20T21:18:27.577Z,2.43
2022-12-20T21:22:44.048Z,2.35
2022-12-20T21:27:00.318Z,2.61
2022-12-20T21:31:18.660Z,2.92
2022-12-20T21:35:34.938Z,2.86
2022-12-20T21:39:51.635Z,2.55
2022-12-20T21:44:07.987Z,2.94
2022-12-20T21:48:25.101Z,3.01
2022-12-20T21:52:42.073Z,2.98
2022-12-20T21:56:58.545Z,2.86
2022-12-20T22:01:17.212Z,2.45
2022-12-20T22:05:33.489Z,2.66
2022-12-20T22:09:49.730Z,2.67
2022-12-20T22:14:06.961Z,2.78
2022-12-20T22:18:24.287Z,2.73
2022-12-20T22:22:41.321Z,2.87
2022-12-20T22:26:57.644Z,2.80
2022-12-20T22:31:14.648Z,2.21
2022-12-20T22:35:31.072Z,2.46
2022-12-20T22:39:49.500Z,2.70
2022-12-20T22:44:05.864Z,2.42
2022-12-20T22:48:22.159Z,2.14
2022-12-20T22:52:38.412Z,2.77
2022-12-20T22:56:54.592Z,2.77
2022-12-20T23:01:13.099Z,2.53
2022-12-20T23:05:29.364Z,2.50
2022-12-20T23:09:45.495Z,2.65
2022-12-20T23:14:20.308Z,2.76
2022-12-20T23:18:36.499Z,2.48
2022-12-20T23:22:53.044Z,2.62
2022-12-20T23:27:09.254Z,2.63
2022-12-20T23:31:25.511Z,2.39
2022-12-20T23:35:42.115Z,2.68
2022-12-20T23:39:58.356Z,2.71
2022-12-20T23:44:14.637Z,2.64
2022-12-20T23:48:31.393Z,2.72
2022-12-20T23:52:47.621Z,2.32
2022-12-20T23:57:03.889Z,2.38
